Time;durP1;ratioP1;P1;durP2;ratioP2;P2;SDS_P1;SDS_P2;PMS_P1;PMS_P2;Temp;Humidity;BMP_temperature;BMP_pressure;BME280_temperature;BME280_humidity;BME280_pressure;Samples;Min_cycle;Max_cycle;Signal;HPM_P1;HPM_P2
2023/10/02 00:01:10;;;;;;;33.83;16.08;;;;;;;16.44;100.00;101504.47;5033256;28;20112;-80
2023/10/02 00:03:34;;;;;;;34.95;16.70;;;;;;;16.37;100.00;101487.34;5050599;28;20072;-79
2023/10/02 00:06:00;;;;;;;35.08;17.33;;;;;;;16.37;100.00;101493.56;5047064;28;20039;-79
2023/10/02 00:08:31;;;;;;;35.88;16.20;;;;;;;16.36;100.00;101491.88;5049461;28;20228;-79
2023/10/02 00:11:07;;;;;;;31.00;16.40;;;;;;;16.25;100.00;101503.13;5066184;28;20118;-80
2023/10/02 00:13:33;;;;;;;;;;;;;;;16.25;100.00;101508.50;5050274;28;20033;-80
2023/10/02 00:15:59;;;;;;;;;;;;;;;16.24;100.00;101520.28;5066964;28;19962;-79
2023/10/02 00:18:27;;;;;;;37.45;16.02;;;;;;;16.21;100.00;101515.25;5049367;28;19942;-79
2023/10/02 00:21:17;;;;;;;32.45;15.93;;;;;;;16.18;100.00;101519.16;5049904;28;20033;-79
2023/10/02 00:23:59;;;;;;;38.00;16.10;;;;;;;16.18;100.00;101510.25;5050831;28;20484;-79
2023/10/02 00:26:24;;;;;;;36.67;17.27;;;;;;;16.03;100.00;101511.00;5050795;28;20033;-78
2023/10/02 00:28:49;;;;;;;38.10;18.93;;;;;;;16.10;100.00;101513.81;5032832;28;20835;-79
2023/10/02 00:31:33;;;;;;;35.87;18.23;;;;;;;16.19;100.00;101511.91;5050652;28;20028;-80
2023/10/02 00:33:59;;;;;;;38.95;17.48;;;;;;;16.19;100.00;101506.53;5049829;28;20041;-78
2023/10/02 00:36:25;;;;;;;35.42;16.77;;;;;;;16.23;100.00;101505.16;5046763;28;20096;-81
2023/10/02 00:38:50;;;;;;;36.50;17.85;;;;;;;16.23;100.00;101497.06;5044183;28;20113;-82
2023/10/02 00:41:16;;;;;;;30.93;16.77;;;;;;;16.24;100.00;101488.78;5037669;28;20033;-81
2023/10/02 00:43:45;;;;;;;30.07;16.47;;;;;;;16.28;100.00;101493.81;5054143;28;20063;-81
2023/10/02 00:46:23;;;;;;;36.47;18.60;;;;;;;16.10;100.00;101489.56;5055614;28;20530;-81
2023/10/02 00:48:50;;;;;;;37.70;18.70;;;;;;;16.24;100.00;101496.03;5050117;28;20387;-80
2023/10/02 00:51:15;;;;;;;34.55;17.98;;;;;;;16.24;100.00;101491.47;5050536;28;20159;-80
2023/10/02 00:53:46;;;;;;;32.05;17.30;;;;;;;16.12;100.00;101492.09;5053807;28;20557;-83
2023/10/02 00:56:24;;;;;;;39.60;19.02;;;;;;;16.10;100.00;101494.13;5054314;28;20132;-82
2023/10/02 00:59:14;;;;;;;31.77;17.13;;;;;;;16.13;100.00;101488.38;5052787;28;20629;-82
2023/10/02 01:01:41;;;;;;;33.45;16.30;;;;;;;16.05;100.00;101483.91;5050587;28;20132;-82
2023/10/02 01:04:09;;;;;;;37.63;17.93;;;;;;;16.09;100.00;101489.78;5050890;28;20539;-80
2023/10/02 01:06:54;;;;;;;35.65;18.00;;;;;;;16.04;100.00;101487.63;5055499;28;20036;-81
2023/10/02 01:09:25;;;;;;;37.80;17.75;;;;;;;16.06;100.00;101501.75;5070612;28;20089;-81
2023/10/02 01:11:52;;;;;;;37.50;20.40;;;;;;;16.07;100.00;101503.41;5062262;28;20033;-81
2023/10/02 01:14:40;;;;;;;40.28;19.20;;;;;;;15.98;100.00;101505.31;5051190;28;20103;-82
2023/10/02 01:17:06;;;;;;;40.95;19.23;;;;;;;16.03;100.00;101507.47;5050431;28;20037;-80
2023/10/02 01:19:52;;;;;;;38.80;21.08;;;;;;;16.08;100.00;101504.25;5035715;28;20036;-81
2023/10/02 01:22:26;;;;;;;;;;;;;;;16.14;100.00;101498.97;5052110;28;20041;-81
2023/10/02 01:25:06;;;;;;;38.38;20.60;;;;;;;16.10;100.00;101488.75;5053608;28;19920;-81
2023/10/02 01:27:40;;;;;;;34.60;19.27;;;;;;;16.07;100.00;101507.97;5037559;28;20040;-78
2023/10/02 01:30:44;;;;;;;33.97;19.40;;;;;;;16.10;100.00;101499.53;5054426;28;20037;-81
2023/10/02 01:33:21;;;;;;;38.83;18.88;;;;;;;16.20;100.00;101498.28;5047515;28;20041;-79
2023/10/02 01:35:53;;;;;;;37.83;19.98;;;;;;;16.21;100.00;101491.00;5053948;28;20043;-80
2023/10/02 01:38:29;;;;;;;43.97;22.65;;;;;;;16.23;100.00;101494.38;5045435;28;20132;-80
2023/10/02 01:41:03;;;;;;;31.95;18.67;;;;;;;16.18;100.00;101494.09;5035990;28;20080;-81
2023/10/02 01:43:32;;;;;;;40.58;20.52;;;;;;;16.18;100.00;101494.91;5069497;28;20025;-80
2023/10/02 01:46:00;;;;;;;38.25;19.42;;;;;;;16.25;100.00;101490.47;5053372;28;20075;-81
2023/10/02 01:48:36;;;;;;;36.13;20.00;;;;;;;16.26;100.00;101480.53;5052201;28;20496;-79
2023/10/02 01:51:21;;;;;;;42.17;19.70;;;;;;;16.16;100.00;101479.94;5052734;28;20033;-80
2023/10/02 01:53:48;;;;;;;34.60;18.90;;;;;;;16.15;100.00;101478.25;5036019;28;20096;-81
2023/10/02 01:56:15;;;;;;;35.28;19.05;;;;;;;15.96;100.00;101474.22;5032299;28;20032;-79
2023/10/02 01:58:45;;;;;;;32.92;17.75;;;;;;;16.00;100.00;101489.81;5047968;28;20033;-80
2023/10/02 02:01:11;;;;;;;36.67;19.10;;;;;;;16.15;100.00;101500.66;5052234;28;20147;-80
2023/10/02 02:03:41;;;;;;;38.45;19.20;;;;;;;16.25;100.00;101501.25;5052292;28;20020;-79
2023/10/02 02:06:11;;;;;;;37.50;19.77;;;;;;;16.15;100.00;101480.94;5053289;28;20029;-79
2023/10/02 02:08:37;;;;;;;41.75;18.80;;;;;;;16.26;100.00;101499.38;5050886;28;20033;-79
2023/10/02 02:11:20;;;;;;;34.10;18.50;;;;;;;16.10;100.00;101491.44;5051971;28;20068;-80
2023/10/02 02:13:51;;;;;;;36.45;18.40;;;;;;;16.11;100.00;101493.09;5051624;28;20541;-80
2023/10/02 02:16:30;;;;;;;36.92;18.80;;;;;;;16.14;100.00;101503.53;5052012;28;20482;-78
2023/10/02 02:18:58;;;;;;;36.33;18.15;;;;;;;16.05;100.00;101491.97;5067747;28;20043;-78
2023/10/02 02:21:24;;;;;;;33.35;17.73;;;;;;;16.09;100.00;101500.56;5051600;28;20032;-80
2023/10/02 02:24:03;;;;;;;42.08;18.42;;;;;;;16.14;100.00;101503.53;5052088;28;20041;-79
2023/10/02 02:26:41;;;;;;;33.42;16.90;;;;;;;16.10;100.00;101478.81;5052826;28;20033;-80
2023/10/02 02:29:23;;;;;;;36.03;19.33;;;;;;;16.08;100.00;101474.63;5052819;28;20040;-80
2023/10/02 02:31:50;;;;;;;36.13;18.02;;;;;;;16.10;100.00;101480.66;5068212;28;20069;-81
2023/10/02 02:34:16;;;;;;;31.60;18.00;;;;;;;16.03;100.00;101473.28;5052071;28;20131;-79
2023/10/02 02:36:46;;;;;;;31.80;18.48;;;;;;;16.09;100.00;101474.44;5051154;28;20078;-81
2023/10/02 02:39:16;;;;;;;35.65;18.52;;;;;;;16.15;100.00;101476.41;5034793;28;20135;-79
2023/10/02 02:44:50;;;;;;;33.28;18.13;;;;;;;16.10;100.00;101467.19;5041216;28;20030;-79
2023/10/02 02:47:21;;;;;;;39.85;18.83;;;;;;;16.07;100.00;101470.25;5045379;28;20040;-81
2023/10/02 02:49:52;;;;;;;39.72;18.55;;;;;;;16.06;100.00;101482.91;5051596;28;20037;-79
2023/10/02 02:52:24;;;;;;;33.03;17.77;;;;;;;16.06;100.00;101485.59;5052679;28;20056;-82
2023/10/02 02:54:58;;;;;;;37.78;18.92;;;;;;;16.06;100.00;101471.25;5052342;28;20033;-80
2023/10/02 02:57:25;;;;;;;34.85;18.48;;;;;;;16.06;100.00;101464.03;5050824;28;20140;-79
2023/10/02 03:02:46;;;;;;;36.30;17.83;;;;;;;16.04;100.00;101466.09;5051881;28;19924;-80
2023/10/02 03:05:16;;;;;;;39.60;20.60;;;;;;;16.03;100.00;101459.84;5050832;28;20021;-80
2023/10/02 03:07:44;;;;;;;39.58;20.10;;;;;;;16.03;100.00;101475.16;5050009;28;20116;-80
2023/10/02 03:10:11;;;;;;;38.45;19.65;;;;;;;16.03;100.00;101473.28;5034698;28;20125;-80
2023/10/02 03:12:47;;;;;;;40.10;20.17;;;;;;;16.07;100.00;101467.56;5050929;28;20037;-78
2023/10/02 03:15:20;;;;;;;;;;;;;;;16.09;100.00;101473.63;5052486;28;20051;-78
2023/10/02 03:17:49;;;;;;;46.35;19.75;;;;;;;16.13;100.00;101474.91;5051423;28;19917;-82
2023/10/02 03:20:24;;;;;;;41.13;20.23;;;;;;;16.12;100.00;101468.69;5031228;28;20021;-79
2023/10/02 03:22:56;;;;;;;34.95;19.52;;;;;;;16.09;100.00;101471.75;5048225;28;20033;-80
2023/10/02 03:25:28;;;;;;;34.47;18.55;;;;;;;16.14;100.00;101473.91;5050714;28;20385;-79
2023/10/02 03:27:57;;;;;;;38.25;19.02;;;;;;;16.06;100.00;101463.19;5050250;28;20039;-81
2023/10/02 03:30:43;;;;;;;39.13;20.45;;;;;;;16.12;100.00;101462.47;5052066;28;20036;-79
2023/10/02 03:33:20;;;;;;;47.05;19.45;;;;;;;16.10;100.00;101464.50;5044759;28;20395;-81
2023/10/02 03:36:08;;;;;;;34.05;18.35;;;;;;;16.12;100.00;101467.84;5050681;28;20124;-79
2023/10/02 03:38:41;;;;;;;42.92;19.60;;;;;;;16.17;100.00;101460.06;5058378;28;20045;-80
2023/10/02 03:41:06;;;;;;;39.83;20.25;;;;;;;16.11;100.00;101455.38;5066663;28;20050;-80
2023/10/02 03:43:34;;;;;;;45.20;20.90;;;;;;;16.11;100.00;101458.94;5052009;28;20045;-79
2023/10/02 03:46:04;;;;;;;34.42;18.58;;;;;;;16.07;100.00;101446.84;5050324;28;20120;-80
2023/10/02 03:48:31;;;;;;;40.15;18.60;;;;;;;16.04;100.00;101445.38;5050343;28;20063;-80
2023/10/02 03:50:57;;;;;;;34.10;18.88;;;;;;;16.02;100.00;101436.63;5050253;28;20733;-80
2023/10/02 03:53:28;;;;;;;50.57;20.43;;;;;;;16.00;100.00;101441.34;5045702;28;20029;-81
2023/10/02 03:56:33;;;;;;;38.33;19.85;;;;;;;15.96;100.00;101440.03;5049110;28;20496;-80
2023/10/02 03:58:45;;;;;;;41.55;19.98;;;;;;;15.93;100.00;101434.19;5050200;28;20029;-80
2023/10/02 04:01:10;;;;;;;36.03;19.77;;;;;;;15.85;100.00;101437.78;5051490;28;20070;-81
2023/10/02 04:03:53;;;;;;;41.40;20.50;;;;;;;15.89;100.00;101441.78;5044265;28;20037;-81
2023/10/02 04:06:33;;;;;;;41.60;20.35;;;;;;;15.81;100.00;101433.78;5047652;28;20034;-81
2023/10/02 04:09:06;;;;;;;39.53;19.08;;;;;;;15.87;100.00;101445.66;5050420;28;20078;-80
2023/10/02 04:11:31;;;;;;;43.03;19.35;;;;;;;15.77;100.00;101441.34;5051114;28;20087;-79
2023/10/02 04:13:57;;;;;;;42.27;20.60;;;;;;;15.83;100.00;101446.03;5049140;28;20037;-81
2023/10/02 04:16:28;;;;;;;43.00;20.73;;;;;;;15.86;100.00;101436.75;5051294;28;20052;-82
2023/10/02 04:19:01;;;;;;;38.13;18.80;;;;;;;15.88;100.00;101445.50;5042898;28;20037;-80
2023/10/02 04:21:28;;;;;;;45.35;21.20;;;;;;;15.95;100.00;101442.94;5050405;28;20042;-79
2023/10/02 04:23:53;;;;;;;39.88;19.05;;;;;;;15.93;100.00;101443.09;5050296;28;20111;-81
2023/10/02 04:26:20;;;;;;;38.67;20.67;;;;;;;15.90;100.00;101445.31;5051341;28;20514;-80
2023/10/02 04:28:56;;;;;;;43.13;19.58;;;;;;;15.97;100.00;101454.34;5049827;28;20033;-80
2023/10/02 04:31:24;;;;;;;40.45;19.92;;;;;;;15.93;100.00;101434.19;5042827;28;20055;-80
2023/10/02 04:34:15;;;;;;;44.50;19.23;;;;;;;15.99;100.00;101436.13;5051131;28;20028;-80
2023/10/02 04:36:41;;;;;;;40.85;18.50;;;;;;;15.96;100.00;101431.13;5053139;28;20075;-80
2023/10/02 04:39:13;;;;;;;37.00;19.42;;;;;;;15.92;100.00;101416.34;5049939;28;20029;-80
2023/10/02 04:42:09;;;;;;;44.53;19.77;;;;;;;15.96;100.00;101421.19;5051403;28;20044;-82
2023/10/02 04:44:44;;;;;;;36.08;18.42;;;;;;;15.89;100.00;101414.84;5051229;28;20041;-80
2023/10/02 04:47:09;;;;;;;42.20;19.00;;;;;;;15.91;100.00;101407.44;5050655;28;20053;-82
2023/10/02 04:49:59;;;;;;;43.63;19.33;;;;;;;15.90;100.00;101405.78;5051006;28;20518;-81
2023/10/02 04:52:37;;;;;;;44.15;19.33;;;;;;;15.88;100.00;101405.09;5049208;28;20033;-80
2023/10/02 04:55:07;;;;;;;41.45;19.13;;;;;;;15.87;100.00;101406.09;5042891;28;20047;-82
2023/10/02 04:57:34;;;;;;;42.08;20.73;;;;;;;15.85;100.00;101410.88;5049609;28;20056;-81
2023/10/02 05:00:19;;;;;;;45.38;20.77;;;;;;;15.86;100.00;101409.84;5050968;28;20078;-81
2023/10/02 05:02:47;;;;;;;48.60;21.73;;;;;;;15.78;100.00;101409.88;5050942;28;20076;-81
2023/10/02 05:05:14;;;;;;;48.50;23.63;;;;;;;15.73;100.00;101404.22;5042763;28;20040;-82
2023/10/02 05:07:41;;;;;;;38.53;21.15;;;;;;;15.72;100.00;101403.38;5049311;28;20037;-80
2023/10/02 05:10:07;;;;;;;42.55;22.35;;;;;;;15.68;100.00;101411.97;5050028;28;20464;-80
2023/10/02 05:12:44;;;;;;;43.25;22.38;;;;;;;15.71;100.00;101412.50;5050789;28;20043;-81
2023/10/02 05:15:20;;;;;;;40.58;19.85;;;;;;;15.74;100.00;101422.06;5049595;28;20048;-80
2023/10/02 05:17:46;;;;;;;48.40;23.17;;;;;;;15.68;100.00;101411.97;5050240;28;20127;-80
2023/10/02 05:20:15;;;;;;;;;;;;;;;15.69;100.00;101417.19;5049955;28;20024;-82
2023/10/02 05:22:42;;;;;;;50.67;23.52;;;;;;;15.63;100.00;101418.72;5049814;28;19919;-80
2023/10/02 05:25:08;;;;;;;50.40;22.85;;;;;;;15.61;100.00;101422.59;5052261;28;20024;-81
2023/10/02 05:27:38;;;;;;;49.65;22.02;;;;;;;15.60;100.00;101429.03;5061147;28;20033;-81
2023/10/02 05:30:12;;;;;;;50.92;21.95;;;;;;;15.69;100.00;101438.72;5036806;28;20037;-81
2023/10/02 05:32:39;;;;;;;45.00;21.95;;;;;;;15.59;100.00;101430.88;5036545;28;20032;-82
2023/10/02 05:37:40;;;;;;;48.40;24.23;;;;;;;15.58;100.00;101423.81;5053002;28;20144;-81
2023/10/02 05:50:56;;;;;;;45.00;23.77;;;;;;;15.83;100.00;101431.75;5058656;28;20036;-83
2023/10/02 05:53:25;;;;;;;49.60;23.40;;;;;;;15.74;100.00;101425.56;5073765;28;20425;-78
2023/10/02 05:55:56;;;;;;;52.05;23.45;;;;;;;15.80;100.00;101424.00;5067503;28;20068;-78
2023/10/02 05:58:31;;;;;;;49.42;22.48;;;;;;;15.88;100.00;101429.34;5042383;28;20111;-79
2023/10/02 06:01:02;;;;;;;42.33;21.92;;;;;;;15.94;100.00;101433.97;5048752;28;20032;-79
2023/10/02 06:03:29;;;;;;;47.97;23.13;;;;;;;16.03;100.00;101432.91;5033100;28;20043;-79
2023/10/02 06:08:41;;;;;;;48.97;22.88;;;;;;;16.15;100.00;101414.44;5048863;28;20459;-81
2023/10/02 06:11:25;;;;;;;49.35;25.13;;;;;;;16.11;100.00;101413.16;5058858;28;20071;-81
2023/10/02 06:13:55;;;;;;;43.53;21.27;;;;;;;16.17;100.00;101416.97;5063106;28;20064;-81
2023/10/02 06:16:23;;;;;;;48.65;22.50;;;;;;;16.17;100.00;101411.56;5047644;28;20040;-80
2023/10/02 06:19:00;;;;;;;42.28;20.65;;;;;;;16.22;100.00;101411.84;5048648;28;20025;-82
2023/10/02 06:21:31;;;;;;;43.67;21.83;;;;;;;16.17;100.00;101403.50;5043719;28;20484;-81
2023/10/02 06:23:56;;;;;;;42.75;20.17;;;;;;;16.17;100.00;101403.50;5051233;28;20075;-80
2023/10/02 06:26:29;;;;;;;42.60;20.33;;;;;;;16.15;100.00;101398.28;5049579;28;20036;-80
2023/10/02 06:29:13;;;;;;;44.88;21.83;;;;;;;16.44;100.00;101415.53;5048522;28;20044;-79
2023/10/02 06:31:42;;;;;;;42.83;19.90;;;;;;;16.63;100.00;101409.56;5032247;28;20033;-80
2023/10/02 06:34:11;;;;;;;39.97;19.27;;;;;;;16.70;100.00;101396.19;5052260;28;20352;-78
2023/10/02 06:36:48;;;;;;;42.65;20.70;;;;;;;16.93;100.00;101398.81;5040060;28;20190;-82
2023/10/02 06:39:17;;;;;;;38.20;19.40;;;;;;;16.74;100.00;101380.44;5046861;28;20314;-83
2023/10/02 06:41:44;;;;;;;43.13;20.33;;;;;;;16.72;100.00;101380.66;5051614;28;20029;-80
2023/10/02 06:44:16;;;;;;;36.17;19.33;;;;;;;16.74;100.00;101388.53;5046624;28;20033;-81
2023/10/02 06:46:54;;;;;;;39.42;20.58;;;;;;;16.55;100.00;101379.16;5048603;28;20124;-82
2023/10/02 06:49:20;;;;;;;37.05;19.23;;;;;;;16.64;100.00;101391.53;5047011;28;20106;-82
2023/10/02 06:51:49;;;;;;;40.50;18.35;;;;;;;16.54;100.00;101389.13;5049207;28;20037;-81
2023/10/02 06:54:19;;;;;;;34.35;17.90;;;;;;;16.70;100.00;101390.78;5034660;28;20134;-80
2023/10/02 06:56:47;;;;;;;33.25;17.88;;;;;;;16.61;100.00;101386.53;5051161;28;20046;-81
2023/10/02 06:59:13;;;;;;;37.40;19.25;;;;;;;16.74;100.00;101391.25;5046319;28;20535;-80
2023/10/02 07:02:01;;;;;;;42.88;17.65;;;;;;;16.80;100.00;101387.84;5049767;28;20032;-81
2023/10/02 07:04:29;;;;;;;44.40;17.92;;;;;;;17.06;100.00;101390.03;5046835;28;20040;-80
2023/10/02 07:07:03;;;;;;;35.67;19.55;;;;;;;17.35;100.00;101377.47;5042794;28;20135;-81
2023/10/02 07:09:33;;;;;;;36.65;18.85;;;;;;;17.58;100.00;101359.19;5045747;28;20067;-80
2023/10/02 07:12:08;;;;;;;33.65;16.23;;;;;;;17.93;100.00;101353.91;5047282;28;20436;-81
2023/10/02 07:14:38;;;;;;;35.30;18.23;;;;;;;18.10;100.00;101333.69;5045537;28;20476;-80
2023/10/02 07:17:17;;;;;;;30.98;16.45;;;;;;;18.03;100.00;101289.59;5043268;28;20553;-79
2023/10/02 07:20:00;;;;;;;35.15;17.02;;;;;;;17.90;100.00;101273.28;5044169;28;20496;-80
2023/10/02 07:22:26;;;;;;;34.83;17.33;;;;;;;17.92;100.00;101285.56;5055480;28;20124;-81
2023/10/02 07:24:58;;;;;;;36.88;16.80;;;;;;;17.98;100.00;101302.88;5033863;28;20139;-79
2023/10/02 07:27:27;;;;;;;36.13;18.05;;;;;;;18.07;100.00;101304.34;5043426;28;20033;-82
2023/10/02 07:30:01;;;;;;;32.78;16.95;;;;;;;17.95;100.00;101281.63;5042983;28;20296;-76
2023/10/02 07:32:29;;;;;;;32.25;17.15;;;;;;;17.52;100.00;101293.34;5053921;28;20049;-80
2023/10/02 07:34:55;;;;;;;35.70;17.42;;;;;;;17.75;100.00;101302.22;5050633;28;20115;-81
2023/10/02 07:37:25;;;;;;;33.10;17.50;;;;;;;17.51;100.00;101301.63;5050661;28;20028;-79
2023/10/02 07:39:58;;;;;;;34.95;18.33;;;;;;;18.00;100.00;101311.56;5045998;28;20037;-82
2023/10/02 07:42:34;;;;;;;28.05;14.55;;;;;;;18.93;100.00;101306.63;5045488;28;20120;-80
2023/10/02 07:45:12;;;;;;;34.92;15.57;;;;;;;18.48;100.00;101189.16;5049776;28;20042;-81
2023/10/02 07:48:08;;;;;;;30.23;16.73;;;;;;;18.41;100.00;101177.50;5043961;28;20044;-80
2023/10/02 07:50:35;;;;;;;27.67;14.95;;;;;;;19.35;100.00;101190.94;5047583;28;20032;-79
2023/10/02 07:53:04;;;;;;;37.10;16.23;;;;;;;20.10;100.00;101122.81;5047024;28;20041;-82
2023/10/02 07:55:32;;;;;;;31.83;14.05;;;;;;;20.35;100.00;101008.19;5052311;28;20471;-81
2023/10/02 07:58:00;;;;;;;31.33;15.85;;;;;;;19.85;100.00;100916.81;5054018;28;20053;-78
2023/10/02 08:00:38;;;;;;;36.17;16.02;;;;;;;19.22;100.00;100963.56;5063298;28;20017;-79
2023/10/02 08:03:09;;;;;;;33.75;15.20;;;;;;;18.94;100.00;101008.00;5031077;28;20334;-79
2023/10/02 08:05:35;;;;;;;27.92;14.68;;;;;;;18.62;100.00;101044.00;5061804;28;20029;-80
2023/10/02 08:08:10;;;;;;;33.80;16.42;;;;;;;18.43;100.00;101091.63;5041852;28;20051;-79
2023/10/02 08:10:53;;;;;;;30.83;16.08;;;;;;;18.79;100.00;101149.94;5066035;28;20119;-77
2023/10/02 08:13:48;;;;;;;36.03;14.88;;;;;;;19.10;100.00;101087.88;5049354;28;20029;-79
2023/10/02 08:16:17;;;;;;;32.78;16.70;;;;;;;18.77;100.00;101096.03;5062226;28;20033;-80
2023/10/02 08:18:57;;;;;;;35.03;16.02;;;;;;;19.00;100.00;101146.19;5059613;28;20132;-76
2023/10/02 08:21:36;;;;;;;30.30;15.43;;;;;;;19.01;100.00;101054.00;5061355;28;20032;-81
2023/10/02 08:24:06;;;;;;;28.38;15.02;;;;;;;19.90;100.00;101036.22;5063076;28;20037;-78
2023/10/02 08:26:43;;;;;;;26.98;14.52;;;;;;;20.21;100.00;100935.06;5061807;28;20052;-80
2023/10/02 08:29:16;;;;;;;28.70;14.35;;;;;;;20.53;100.00;100921.41;5062870;28;20040;-81
2023/10/02 08:31:43;;;;;;;34.78;16.55;;;;;;;20.85;100.00;100821.75;5061421;28;20067;-79
2023/10/02 08:34:17;;;;;;;27.27;14.35;;;;;;;20.83;100.00;100775.03;5048098;28;20021;-79
2023/10/02 08:36:45;;;;;;;29.60;14.63;;;;;;;20.89;100.00;100761.63;5061355;28;20037;-78
2023/10/02 08:39:10;;;;;;;;;;;;;;;21.04;100.00;100677.88;5066863;28;20047;-77
2023/10/02 08:41:46;;;;;;;33.60;16.48;;;;;;;20.47;100.00;100715.41;5058030;28;19917;-77
2023/10/02 08:44:15;;;;;;;28.88;15.00;;;;;;;20.55;100.00;100707.78;5057132;28;20041;-80
2023/10/02 08:46:43;;;;;;;28.38;14.32;;;;;;;20.96;100.00;100725.19;5064859;28;20556;-79
2023/10/02 08:49:11;;;;;;;31.83;15.70;;;;;;;20.90;100.00;100578.75;5058284;28;20044;-77
2023/10/02 08:51:38;;;;;;;34.53;14.65;;;;;;;21.23;100.00;100614.28;5055946;28;20254;-79
2023/10/02 08:54:05;;;;;;;27.35;14.32;;;;;;;21.45;100.00;100590.09;5056912;28;20049;-80
2023/10/02 08:56:43;;;;;;;27.90;15.52;;;;;;;21.86;100.00;100634.41;5060607;28;20055;-82
2023/10/02 08:59:18;;;;;;;27.73;14.43;;;;;;;22.19;100.00;100426.25;5050800;28;20041;-82
2023/10/02 09:01:49;;;;;;;27.10;14.25;;;;;;;22.02;100.00;100415.41;5057622;28;20029;-82
2023/10/02 09:04:28;;;;;;;23.85;14.48;;;;;;;22.56;100.00;100477.47;5058791;28;20025;-82
2023/10/02 09:07:14;;;;;;;27.35;15.60;;;;;;;21.36;100.00;100297.44;5058830;28;20040;-82
2023/10/02 09:09:45;;;;;;;;;;;;;;;21.59;100.00;100500.22;5072765;28;20060;-79
2023/10/02 09:12:17;;;;;;;27.38;14.25;;;;;;;22.07;100.00;100604.94;5059193;28;20191;-80
2023/10/02 09:14:42;;;;;;;24.80;13.80;;;;;;;22.46;100.00;100662.28;5055766;28;20060;-78
2023/10/02 09:17:18;;;;;;;25.98;12.63;;;;;;;22.82;100.00;100466.97;5058165;28;20079;-79
2023/10/02 09:19:49;;;;;;;29.55;13.63;;;;;;;21.57;100.00;100106.63;5061255;28;20039;-80
2023/10/02 09:22:17;;;;;;;25.08;14.38;;;;;;;21.60;100.00;100539.88;5055785;28;20063;-81
2023/10/02 09:24:55;;;;;;;28.38;15.23;;;;;;;21.27;100.00;100636.34;5053651;28;20474;-78
2023/10/02 09:27:23;;;;;;;34.67;14.70;;;;;;;21.35;100.00;100627.84;5066173;28;20116;-81
2023/10/02 09:30:21;;;;;;;29.25;13.23;;;;;;;21.99;100.00;100765.72;5051112;28;20112;-80
2023/10/02 09:32:51;;;;;;;23.90;13.13;;;;;;;22.60;100.00;100530.31;5058916;28;20119;-78
2023/10/02 09:35:21;;;;;;;27.48;14.23;;;;;;;22.38;100.00;100350.72;5035711;28;20616;-78
2023/10/02 09:37:55;;;;;;;29.23;15.23;;;;;;;21.93;100.00;100368.78;5050252;28;20040;-78
2023/10/02 09:40:26;;;;;;;30.95;14.27;;;;;;;22.23;100.00;100712.16;5051671;28;20407;-83
2023/10/02 09:43:01;;;;;;;26.73;13.13;;;;;;;22.56;100.00;100534.59;5029501;28;20516;-77
2023/10/02 09:45:31;;;;;;;26.02;13.13;;;;;;;23.38;100.00;100503.97;5048774;28;20041;-82
2023/10/02 09:48:05;;;;;;;28.13;13.07;;;;;;;22.18;100.00;100400.16;5045050;28;20068;-81
2023/10/02 09:50:38;;;;;;;24.60;13.77;;;;;;;22.89;100.00;100427.59;5047393;28;20431;-82
2023/10/02 09:53:10;;;;;;;30.77;14.00;;;;;;;22.24;100.00;100111.00;5051976;28;20112;-81
2023/10/02 09:56:01;;;;;;;32.28;13.93;;;;;;;23.05;100.00;100523.94;5049955;28;20087;-81
2023/10/02 09:58:46;;;;;;;27.50;13.88;;;;;;;22.95;100.00;100384.97;5051535;28;20159;-78
2023/10/02 10:01:33;;;;;;;28.48;13.88;;;;;;;22.69;100.00;100324.75;5054104;28;20032;-80
2023/10/02 10:04:00;;;;;;;25.98;13.40;;;;;;;22.77;100.00;100402.41;5034368;28;20043;-81
2023/10/02 10:06:36;;;;;;;26.40;13.13;;;;;;;22.77;100.00;100508.53;5054707;28;20028;-80
2023/10/02 10:11:42;;;;;;;25.92;11.90;;;;;;;23.07;100.00;100584.44;5050452;28;20030;-78
2023/10/02 10:14:40;;;;;;;24.30;12.40;;;;;;;23.76;100.00;100434.13;5047136;28;20480;-80
2023/10/02 10:17:49;;;;;;;22.98;11.90;;;;;;;23.17;100.00;100444.88;5048328;28;20032;-80
2023/10/02 10:20:26;;;;;;;24.65;12.48;;;;;;;23.04;100.00;100269.13;5049685;28;20041;-80
2023/10/02 10:22:55;;;;;;;22.98;13.10;;;;;;;23.09;100.00;100383.53;5029907;28;20037;-78
2023/10/02 10:27:54;;;;;;;26.17;12.73;;;;;;;22.34;100.00;100451.03;5043680;28;20037;-78
2023/10/02 10:30:28;;;;;;;27.02;12.38;;;;;;;22.09;100.00;100614.50;5047653;28;20045;-80
2023/10/02 10:35:57;;;;;;;24.15;12.07;;;;;;;22.21;100.00;100584.56;5050888;28;20594;-80
2023/10/02 10:38:26;;;;;;;23.10;12.68;;;;;;;22.32;100.00;100760.47;5047155;28;20071;-81
2023/10/02 10:41:00;;;;;;;27.58;13.60;;;;;;;22.11;100.00;100641.47;5047517;28;20344;-82
2023/10/02 10:43:43;;;;;;;30.83;12.15;;;;;;;22.02;100.00;100691.84;5052899;28;20036;-82
2023/10/02 10:46:19;;;;;;;29.92;14.27;;;;;;;21.83;100.00;100800.69;5033306;28;20036;-82
2023/10/02 10:48:48;;;;;;;23.80;11.38;;;;;;;21.96;100.00;100908.34;5049989;28;20033;-80
2023/10/02 10:51:22;;;;;;;28.70;12.77;;;;;;;22.19;100.00;100910.25;5052764;28;20041;-82
2023/10/02 10:53:52;;;;;;;28.23;12.95;;;;;;;21.96;100.00;100793.34;5042360;28;20360;-79
2023/10/02 10:56:19;;;;;;;21.77;12.07;;;;;;;21.73;100.00;100914.56;5030930;28;20433;-81
2023/10/02 10:58:51;;;;;;;27.67;12.13;;;;;;;22.02;100.00;100958.22;5039986;28;20086;-81
2023/10/02 11:01:17;;;;;;;24.15;12.57;;;;;;;22.57;100.00;100957.97;5040882;28;20037;-78
2023/10/02 11:03:43;;;;;;;24.10;11.10;;;;;;;22.85;100.00;100900.06;5050347;28;20036;-79
2023/10/02 11:06:10;;;;;;;26.60;13.43;;;;;;;22.70;100.00;100747.34;5045104;28;20037;-82
2023/10/02 11:08:40;;;;;;;22.00;11.30;;;;;;;22.69;100.00;100553.31;5031689;28;20476;-81
2023/10/02 11:11:11;;;;;;;20.35;10.80;;;;;;;23.42;100.00;100726.84;5052712;28;20112;-82
2023/10/02 11:13:50;;;;;;;23.77;11.88;;;;;;;23.53;100.00;100606.88;5053440;28;20035;-77
2023/10/02 11:16:36;;;;;;;20.55;11.65;;;;;;;23.65;100.00;100486.00;5049407;28;20047;-80
2023/10/02 11:19:21;;;;;;;26.23;12.23;;;;;;;24.19;100.00;100573.31;5034782;28;20041;-75
2023/10/02 11:22:14;;;;;;;23.08;11.48;;;;;;;24.22;100.00;100456.34;5045812;28;20150;-78
2023/10/02 11:25:20;;;;;;;21.70;12.93;;;;;;;24.33;100.00;100288.13;5047425;28;20033;-80
2023/10/02 11:27:56;;;;;;;21.52;11.80;;;;;;;23.45;100.00;100337.59;5051770;28;20033;-80
2023/10/02 11:30:31;;;;;;;;;;;;;;;23.42;100.00;100501.56;5042965;28;20478;-78
2023/10/02 11:33:07;;;;;;;28.20;10.43;;;;;;;23.37;100.00;100427.97;5039027;28;19957;-81
2023/10/02 11:35:42;;;;;;;20.73;9.77;;;;;;;23.24;100.00;100441.97;5044415;28;20051;-79
2023/10/02 11:38:09;;;;;;;20.42;10.63;;;;;;;23.36;100.00;100372.63;5046867;28;20058;-82
2023/10/02 11:40:35;;;;;;;22.50;11.10;;;;;;;23.02;100.00;100399.22;5042878;28;20047;-78
2023/10/02 11:43:00;;;;;;;21.95;11.27;;;;;;;22.79;100.00;100269.63;5042830;28;20041;-81
2023/10/02 11:45:26;;;;;;;23.47;9.90;;;;;;;22.73;100.00;100505.50;5046717;28;20028;-80
2023/10/02 11:47:53;;;;;;;17.77;9.65;;;;;;;22.67;100.00;100536.41;5037929;28;20044;-78
2023/10/02 11:50:18;;;;;;;23.95;10.70;;;;;;;22.43;100.00;100548.50;5024905;23;20073;-86
2023/10/02 11:52:44;;;;;;;23.63;11.73;;;;;;;22.20;100.00;100593.78;5000499;28;20492;-87
2023/10/02 11:55:09;;;;;;;21.15;9.98;;;;;;;22.54;100.00;100648.28;5007948;28;20018;-85
2023/10/02 11:57:37;;;;;;;22.38;11.13;;;;;;;22.27;100.00;100664.38;4991541;28;20036;-85
2023/10/02 12:00:09;;;;;;;19.60;11.18;;;;;;;22.09;100.00;100657.19;5007636;28;20400;-86